createdAt,value
2017-10-20T00:01:51.790Z,100278
2017-10-20T00:04:19.876Z,100278
2017-10-20T00:06:47.965Z,100276
2017-10-20T00:09:16.078Z,100290
2017-10-20T00:11:44.164Z,100278
2017-10-20T00:14:12.255Z,100278
2017-10-20T00:16:40.356Z,100298
2017-10-20T00:19:09.384Z,100294
2017-10-20T00:21:37.509Z,100295
2017-10-20T00:24:06.087Z,100293
2017-10-20T00:26:34.680Z,100292
2017-10-20T00:29:02.768Z,100293
2017-10-20T00:31:30.859Z,100298
2017-10-20T00:33:59.163Z,100299
2017-10-20T00:36:28.128Z,100300
2017-10-20T00:38:56.237Z,100294
2017-10-20T00:41:25.095Z,100295
2017-10-20T00:43:53.211Z,100299
2017-10-20T00:46:21.303Z,100295
2017-10-20T00:48:49.580Z,100298
2017-10-20T00:51:17.673Z,100300
2017-10-20T00:53:45.756Z,100296
2017-10-20T00:56:13.912Z,100290
2017-10-20T00:58:42.010Z,100285
2017-10-20T01:01:10.091Z,100291
2017-10-20T01:03:38.966Z,100285
2017-10-20T01:06:07.042Z,100270
2017-10-20T01:08:35.140Z,100275
2017-10-20T01:11:03.987Z,100255
2017-10-20T01:13:32.104Z,100235
2017-10-20T01:16:00.972Z,100251
2017-10-20T01:18:29.079Z,100267
2017-10-20T01:20:57.183Z,100266
2017-10-20T01:23:25.268Z,100260
2017-10-20T01:25:53.437Z,100263
2017-10-20T01:28:21.515Z,100247
2017-10-20T01:30:50.287Z,100239
2017-10-20T01:33:18.587Z,100242
2017-10-20T01:35:46.686Z,100233
2017-10-20T01:38:15.779Z,100238
2017-10-20T01:40:44.620Z,100228
2017-10-20T01:43:13.000Z,100232
2017-10-20T01:45:41.080Z,100242
2017-10-20T01:48:09.449Z,100236
2017-10-20T01:50:37.530Z,100239
2017-10-20T01:53:05.639Z,100244
2017-10-20T01:55:33.719Z,100226
2017-10-20T01:58:02.567Z,100225
2017-10-20T02:00:30.684Z,100238
2017-10-20T02:02:59.546Z,100238
2017-10-20T02:05:27.644Z,100241
2017-10-20T02:07:55.748Z,100242
2017-10-20T02:10:23.851Z,100228
2017-10-20T02:12:51.956Z,100217
2017-10-20T02:15:20.055Z,100213
2017-10-20T02:17:48.141Z,100209
2017-10-20T02:20:16.233Z,100214
2017-10-20T02:22:44.342Z,100219
2017-10-20T02:25:13.283Z,100208
2017-10-20T02:27:41.392Z,100194
2017-10-20T02:30:09.487Z,100192
2017-10-20T02:32:38.387Z,100199
2017-10-20T02:35:07.322Z,100176
2017-10-20T02:37:35.377Z,100169
2017-10-20T02:40:03.488Z,100180
2017-10-20T02:42:31.572Z,100170
2017-10-20T02:44:59.656Z,100165
2017-10-20T02:47:28.536Z,100172
2017-10-20T02:49:57.771Z,100165
2017-10-20T02:52:25.881Z,100158
2017-10-20T02:54:53.963Z,100161
2017-10-20T02:57:22.102Z,100174
2017-10-20T02:59:50.532Z,100181
2017-10-20T03:02:18.624Z,100170
2017-10-20T03:04:48.633Z,100165
2017-10-20T03:07:16.719Z,100158
2017-10-20T03:09:45.563Z,100164
2017-10-20T03:12:13.660Z,100165
2017-10-20T03:14:42.528Z,100175
2017-10-20T03:17:10.623Z,100172
2017-10-20T03:19:38.716Z,100162
2017-10-20T03:22:06.824Z,100162
2017-10-20T03:24:34.904Z,100151
2017-10-20T03:27:02.977Z,100156
2017-10-20T03:29:31.076Z,100149
2017-10-20T03:31:59.639Z,100138
2017-10-20T03:34:27.792Z,100132
2017-10-20T03:36:55.912Z,100147
2017-10-20T03:39:24.029Z,100144
2017-10-20T03:41:52.107Z,100160
2017-10-20T03:44:20.195Z,100156
2017-10-20T03:46:48.290Z,100161
2017-10-20T03:49:16.370Z,100156
2017-10-20T03:51:44.486Z,100137
2017-10-20T03:54:12.565Z,100146
2017-10-20T03:56:40.655Z,100140
2017-10-20T03:59:08.760Z,100137
2017-10-20T04:01:36.855Z,100147
2017-10-20T04:04:04.956Z,100158
2017-10-20T04:06:33.064Z,100162
2017-10-20T04:09:01.149Z,100154
2017-10-20T04:11:29.268Z,100168
2017-10-20T04:13:57.357Z,100171
2017-10-20T04:16:25.526Z,100167
2017-10-20T04:18:53.599Z,100161
2017-10-20T04:21:21.692Z,100161
2017-10-20T04:23:49.808Z,100162
2017-10-20T04:26:17.923Z,100159
2017-10-20T04:28:46.024Z,100164
2017-10-20T04:31:14.131Z,100164
2017-10-20T04:33:44.357Z,100158
2017-10-20T04:36:12.451Z,100164
2017-10-20T04:38:40.548Z,100168
2017-10-20T04:41:08.869Z,100171
2017-10-20T04:43:37.032Z,100174
2017-10-20T04:46:05.313Z,100191
2017-10-20T04:48:34.313Z,100181
2017-10-20T04:51:02.485Z,100177
2017-10-20T04:53:30.661Z,100162
2017-10-20T04:55:58.835Z,100171
2017-10-20T04:58:27.924Z,100164
2017-10-20T05:00:56.170Z,100153
2017-10-20T05:03:24.372Z,100144
2017-10-20T05:05:52.551Z,100150
2017-10-20T05:08:25.384Z,100148
2017-10-20T05:10:53.506Z,100161
2017-10-20T05:13:21.680Z,100168
2017-10-20T05:15:50.780Z,100170
2017-10-20T05:18:18.956Z,100174
2017-10-20T05:20:47.170Z,100176
2017-10-20T05:23:15.342Z,100178
2017-10-20T05:25:43.471Z,100176
2017-10-20T05:28:11.604Z,100164
2017-10-20T05:30:39.716Z,100166
2017-10-20T05:33:08.789Z,100165
2017-10-20T05:35:36.883Z,100172
2017-10-20T05:38:05.753Z,100169
2017-10-20T05:40:33.867Z,100163
2017-10-20T05:43:01.951Z,100153
2017-10-20T05:45:30.128Z,100140
2017-10-20T05:47:58.298Z,100152
2017-10-20T05:50:28.065Z,100147
2017-10-20T05:52:56.140Z,100143
2017-10-20T05:55:24.239Z,100133
2017-10-20T05:57:52.348Z,100141
2017-10-20T06:00:20.450Z,100136
2017-10-20T06:02:48.564Z,100127
2017-10-20T06:05:16.662Z,100125
2017-10-20T06:07:44.737Z,100106
2017-10-20T06:10:12.846Z,100112
2017-10-20T06:12:41.955Z,100124
2017-10-20T06:15:10.067Z,100111
2017-10-20T06:17:41.140Z,100105
2017-10-20T06:20:09.219Z,100111
2017-10-20T06:22:38.359Z,100115
2017-10-20T06:25:06.472Z,100128
2017-10-20T06:27:35.509Z,100119
2017-10-20T06:30:05.356Z,100129
2017-10-20T06:32:33.467Z,100131
2017-10-20T06:35:01.560Z,100116
2017-10-20T06:37:29.676Z,100106
2017-10-20T06:39:57.772Z,100108
2017-10-20T06:42:25.889Z,100112
2017-10-20T06:44:53.977Z,100107
2017-10-20T06:47:22.099Z,100113
2017-10-20T06:49:50.216Z,100098
2017-10-20T06:52:18.319Z,100114
2017-10-20T06:54:46.428Z,100127
2017-10-20T06:57:15.314Z,100120
2017-10-20T06:59:43.421Z,100121
2017-10-20T07:02:11.505Z,100125
2017-10-20T07:04:39.623Z,100122
2017-10-20T07:07:07.732Z,100129
2017-10-20T07:09:35.896Z,100132
2017-10-20T07:12:04.775Z,100130
2017-10-20T07:14:32.901Z,100139
2017-10-20T07:17:01.001Z,100134
2017-10-20T07:19:32.552Z,100134
2017-10-20T07:22:00.651Z,100116
2017-10-20T07:24:28.744Z,100123
2017-10-20T07:26:56.839Z,100129
2017-10-20T07:29:25.111Z,100126
2017-10-20T07:31:53.203Z,100126
2017-10-20T07:34:21.296Z,100120
2017-10-20T07:36:49.384Z,100118
2017-10-20T07:39:17.527Z,100112
2017-10-20T07:41:45.821Z,100120
2017-10-20T07:44:14.128Z,100113
2017-10-20T07:46:42.253Z,100122
2017-10-20T07:49:10.356Z,100124
2017-10-20T07:51:38.509Z,100120
2017-10-20T07:54:06.777Z,100130
2017-10-20T07:56:34.868Z,100132
2017-10-20T07:59:03.066Z,100135
2017-10-20T08:01:31.192Z,100145
2017-10-20T08:03:59.303Z,100133
2017-10-20T08:06:27.425Z,100135
2017-10-20T08:08:56.472Z,100128
2017-10-20T08:11:25.341Z,100119
2017-10-20T08:13:53.445Z,100122
2017-10-20T08:16:21.584Z,100122
2017-10-20T08:18:49.694Z,100131
2017-10-20T08:21:18.790Z,100097
2017-10-20T08:23:46.980Z,100153
2017-10-20T08:26:15.097Z,100162
2017-10-20T08:28:43.279Z,100169
2017-10-20T08:31:11.366Z,100163
2017-10-20T08:33:39.471Z,100162
2017-10-20T08:36:07.785Z,100178
2017-10-20T08:38:36.012Z,100183
2017-10-20T08:41:04.900Z,100215
2017-10-20T08:43:33.094Z,100226
2017-10-20T08:46:02.140Z,100230
2017-10-20T08:48:30.219Z,100229
2017-10-20T08:50:58.331Z,100239
2017-10-20T08:53:26.510Z,100267
2017-10-20T08:55:54.633Z,100257
2017-10-20T08:58:22.848Z,100262
2017-10-20T09:00:50.953Z,100265
2017-10-20T09:03:19.066Z,100246
2017-10-20T09:05:47.337Z,100249
2017-10-20T09:08:15.673Z,100240
2017-10-20T09:10:43.794Z,100250
2017-10-20T09:13:11.877Z,100257
2017-10-20T09:15:40.757Z,100254
2017-10-20T09:18:09.616Z,100250
2017-10-20T09:20:38.093Z,100252
2017-10-20T09:23:06.394Z,100258
2017-10-20T09:25:36.568Z,100249
2017-10-20T09:28:04.646Z,100242
2017-10-20T09:30:32.731Z,100260
2017-10-20T09:33:00.844Z,100257
2017-10-20T09:35:29.016Z,100258
2017-10-20T09:37:57.093Z,100267
2017-10-20T09:40:26.284Z,100269
2017-10-20T09:42:54.394Z,100268
2017-10-20T09:45:22.510Z,100274
2017-10-20T09:47:50.599Z,100279
2017-10-20T09:50:18.702Z,100283
2017-10-20T09:52:46.792Z,100286
2017-10-20T09:55:14.896Z,100276
2017-10-20T09:57:42.975Z,100280
2017-10-20T10:00:11.134Z,100295
2017-10-20T10:02:39.463Z,100279
2017-10-20T10:05:07.542Z,100294
2017-10-20T10:07:35.635Z,100293
2017-10-20T10:10:03.732Z,100298
2017-10-20T10:12:31.830Z,100294
2017-10-20T10:15:01.109Z,100299
2017-10-20T10:17:29.280Z,100313
2017-10-20T10:19:57.416Z,100297
2017-10-20T10:22:25.516Z,100300
2017-10-20T10:24:53.628Z,100294
2017-10-20T10:27:22.692Z,100303
2017-10-20T10:29:50.791Z,100322
2017-10-20T10:32:19.935Z,100322
2017-10-20T10:34:48.150Z,100325
2017-10-20T10:37:16.483Z,100311
2017-10-20T10:39:45.492Z,100318
2017-10-20T10:42:13.595Z,100310
2017-10-20T10:44:41.673Z,100316
2017-10-20T10:47:09.975Z,100316
2017-10-20T10:49:39.683Z,100319
2017-10-20T10:52:08.560Z,100320
2017-10-20T10:54:37.602Z,100334
2017-10-20T10:57:05.795Z,100341
2017-10-20T10:59:37.413Z,100340
2017-10-20T11:02:05.587Z,100334
2017-10-20T11:04:33.672Z,100325
2017-10-20T11:07:19.619Z,100338
2017-10-20T11:10:05.410Z,100335
2017-10-20T11:12:42.192Z,100339
2017-10-20T11:15:10.273Z,100347
2017-10-20T11:17:39.136Z,100346
2017-10-20T11:20:07.225Z,100344
2017-10-20T11:22:35.341Z,100336
2017-10-20T11:25:03.517Z,100344
2017-10-20T11:27:31.613Z,100347
2017-10-20T11:30:00.032Z,100349
2017-10-20T11:32:28.143Z,100352
2017-10-20T11:34:56.268Z,100356
2017-10-20T11:37:25.137Z,100360
2017-10-20T11:39:53.343Z,100354
2017-10-20T11:42:22.220Z,100358
2017-10-20T11:44:50.436Z,100352
2017-10-20T11:47:18.532Z,100369
2017-10-20T11:49:46.733Z,100357
2017-10-20T11:52:14.860Z,100357
2017-10-20T11:54:42.948Z,100353
2017-10-20T11:57:11.049Z,100361
2017-10-20T11:59:39.240Z,100363
2017-10-20T12:02:07.343Z,100373
2017-10-20T12:04:35.602Z,100358
2017-10-20T12:07:04.647Z,100371
2017-10-20T12:09:32.807Z,100365
2017-10-20T12:12:00.907Z,100368
2017-10-20T12:14:28.996Z,100362
2017-10-20T12:16:57.156Z,100365
2017-10-20T12:19:26.207Z,100360
2017-10-20T12:21:54.322Z,100361
2017-10-20T12:24:22.552Z,100357
2017-10-20T12:26:50.791Z,100372
2017-10-20T12:29:19.728Z,100359
2017-10-20T12:31:47.823Z,100368
2017-10-20T12:34:17.703Z,100369
2017-10-20T12:36:45.913Z,100371
2017-10-20T12:39:14.016Z,100387
2017-10-20T12:41:42.998Z,100376
2017-10-20T12:44:12.258Z,100372
2017-10-20T12:46:40.473Z,100379
2017-10-20T12:49:08.592Z,100368
2017-10-20T12:51:36.759Z,100380
2017-10-20T12:54:04.860Z,100382
2017-10-20T12:56:32.972Z,100370
2017-10-20T12:59:01.112Z,100374
2017-10-20T13:01:29.323Z,100381
2017-10-20T13:03:58.256Z,100383
2017-10-20T13:06:26.356Z,100384
2017-10-20T13:08:54.499Z,100388
2017-10-20T13:11:22.634Z,100388
2017-10-20T13:13:51.475Z,100386
2017-10-20T13:16:19.626Z,100393
2017-10-20T13:18:47.808Z,100395
2017-10-20T13:21:15.881Z,100404
2017-10-20T13:23:44.060Z,100406
2017-10-20T13:26:12.148Z,100401
2017-10-20T13:28:40.244Z,100420
2017-10-20T13:31:08.532Z,100409
2017-10-20T13:33:36.888Z,100418
2017-10-20T13:36:05.306Z,100406
2017-10-20T13:38:33.392Z,100415
2017-10-20T13:41:01.540Z,100403
2017-10-20T13:43:30.397Z,100411
2017-10-20T13:45:58.576Z,100406
2017-10-20T13:48:26.686Z,100411
2017-10-20T13:50:55.556Z,100412
2017-10-20T13:53:23.676Z,100412
2017-10-20T13:55:51.787Z,100411
2017-10-20T13:58:19.998Z,100412
2017-10-20T14:00:48.127Z,100410
2017-10-20T14:03:16.247Z,100416
2017-10-20T14:05:45.112Z,100411
2017-10-20T14:08:13.212Z,100423
2017-10-20T14:10:45.387Z,100420
2017-10-20T14:13:13.464Z,100421
2017-10-20T14:15:41.580Z,100437
2017-10-20T14:18:09.686Z,100429
2017-10-20T14:20:37.865Z,100433
2017-10-20T14:23:05.998Z,100434
2017-10-20T14:25:34.092Z,100431
2017-10-20T14:28:02.237Z,100431
2017-10-20T14:30:30.308Z,100439
2017-10-20T14:32:58.406Z,100428
2017-10-20T14:35:26.508Z,100439
2017-10-20T14:37:54.592Z,100433
2017-10-20T14:40:23.674Z,100451
2017-10-20T14:42:51.771Z,100465
2017-10-20T14:45:19.903Z,100467
2017-10-20T14:47:47.992Z,100464
2017-10-20T14:50:16.839Z,100471
2017-10-20T14:52:44.968Z,100465
2017-10-20T14:55:13.604Z,100467
2017-10-20T14:57:42.671Z,100476
2017-10-20T15:00:10.854Z,100478
2017-10-20T15:02:39.970Z,100487
2017-10-20T15:05:08.902Z,100489
2017-10-20T15:07:37.813Z,100492
2017-10-20T15:10:06.180Z,100486
2017-10-20T15:12:35.394Z,100499
2017-10-20T15:15:04.547Z,100478
2017-10-20T15:17:32.694Z,100480
2017-10-20T15:20:00.826Z,100489
2017-10-20T15:22:28.947Z,100491
2017-10-20T15:24:57.072Z,100495
2017-10-20T15:27:25.164Z,100489
2017-10-20T15:29:53.335Z,100488
2017-10-20T15:32:22.475Z,100490
2017-10-20T15:34:50.589Z,100503
2017-10-20T15:37:18.721Z,100496
2017-10-20T15:39:46.886Z,100505
2017-10-20T15:42:15.026Z,100494
2017-10-20T15:44:43.383Z,100490
2017-10-20T15:47:11.505Z,100506
2017-10-20T15:49:39.682Z,100507
2017-10-20T15:52:07.813Z,100512
2017-10-20T15:54:35.924Z,100518
2017-10-20T15:57:04.029Z,100512
2017-10-20T15:59:32.913Z,100517
2017-10-20T16:02:01.487Z,100512
2017-10-20T16:04:29.561Z,100522
2017-10-20T16:06:57.662Z,100513
2017-10-20T16:09:26.579Z,100523
2017-10-20T16:11:54.658Z,100527
2017-10-20T16:14:22.735Z,100535
2017-10-20T16:16:50.847Z,100532
2017-10-20T16:19:18.941Z,100536
2017-10-20T16:21:47.808Z,100529
2017-10-20T16:24:15.899Z,100536
2017-10-20T16:26:43.998Z,100531
2017-10-20T16:29:12.142Z,100543
2017-10-20T16:31:42.099Z,100537
2017-10-20T16:34:10.207Z,100548
2017-10-20T16:36:38.294Z,100549
2017-10-20T16:39:06.531Z,100575
2017-10-20T16:41:34.658Z,100549
2017-10-20T16:44:02.747Z,100553
2017-10-20T16:46:30.891Z,100557
2017-10-20T16:48:59.737Z,100560
2017-10-20T16:51:27.849Z,100562
2017-10-20T16:53:55.956Z,100566
2017-10-20T16:56:24.039Z,100550
2017-10-20T16:58:52.148Z,100580
2017-10-20T17:01:20.617Z,100569
2017-10-20T17:03:48.716Z,100578
2017-10-20T17:06:17.381Z,100590
2017-10-20T17:08:46.320Z,100568
2017-10-20T17:11:14.437Z,100587
2017-10-20T17:13:42.691Z,100615
2017-10-20T17:16:10.774Z,100595
2017-10-20T17:18:39.244Z,100597
2017-10-20T17:21:07.353Z,100598
2017-10-20T17:23:35.591Z,100591
2017-10-20T17:26:03.668Z,100598
2017-10-20T17:28:31.773Z,100605
2017-10-20T17:31:00.829Z,100596
2017-10-20T17:33:28.973Z,100596
2017-10-20T17:35:58.768Z,100604
2017-10-20T17:38:27.129Z,100609
2017-10-20T17:40:55.237Z,100618
2017-10-20T17:43:24.100Z,100613
2017-10-20T17:45:52.200Z,100620
2017-10-20T17:48:20.301Z,100625
2017-10-20T17:50:48.395Z,100618
2017-10-20T17:53:16.501Z,100629
2017-10-20T17:55:44.615Z,100636
2017-10-20T17:58:12.728Z,100631
2017-10-20T18:00:40.869Z,100641
2017-10-20T18:03:08.992Z,100641
2017-10-20T18:05:37.131Z,100640
2017-10-20T18:08:05.261Z,100642
2017-10-20T18:10:35.025Z,100640
2017-10-20T18:13:03.127Z,100638
2017-10-20T18:15:31.235Z,100633
2017-10-20T18:18:00.108Z,100635
2017-10-20T18:20:28.222Z,100646
2017-10-20T18:22:56.392Z,100647
2017-10-20T18:25:24.497Z,100643
2017-10-20T18:27:52.966Z,100643
2017-10-20T18:30:21.104Z,100654
2017-10-20T18:32:49.209Z,100654
2017-10-20T18:35:17.318Z,100662
2017-10-20T18:37:45.425Z,100653
2017-10-20T18:40:13.562Z,100663
2017-10-20T18:42:42.420Z,100657
2017-10-20T18:45:10.599Z,100669
2017-10-20T18:47:38.714Z,100655
2017-10-20T18:50:07.584Z,100667
2017-10-20T18:52:35.695Z,100665
2017-10-20T18:55:04.063Z,100657
2017-10-20T18:57:32.158Z,100658
2017-10-20T19:00:00.251Z,100660
2017-10-20T19:02:28.392Z,100655
2017-10-20T19:04:57.264Z,100659
2017-10-20T19:07:25.355Z,100668
2017-10-20T19:09:53.467Z,100668
2017-10-20T19:12:21.556Z,100668
2017-10-20T19:14:50.432Z,100667
2017-10-20T19:17:18.535Z,100670
2017-10-20T19:19:47.382Z,100677
2017-10-20T19:22:15.475Z,100675
2017-10-20T19:24:43.584Z,100673
2017-10-20T19:27:11.666Z,100665
2017-10-20T19:29:39.777Z,100683
2017-10-20T19:32:07.869Z,100692
2017-10-20T19:34:35.968Z,100690
2017-10-20T19:37:04.816Z,100685
2017-10-20T19:39:32.915Z,100681
2017-10-20T19:42:01.778Z,100688
2017-10-20T19:44:30.057Z,100682
2017-10-20T19:46:58.156Z,100694
2017-10-20T19:49:26.270Z,100692
2017-10-20T19:51:54.375Z,100694
2017-10-20T19:54:22.478Z,100695
2017-10-20T19:56:51.389Z,100701
2017-10-20T19:59:19.480Z,100707
2017-10-20T20:01:47.568Z,100701
2017-10-20T20:04:15.663Z,100715
2017-10-20T20:06:43.748Z,100711
2017-10-20T20:09:11.864Z,100715
2017-10-20T20:11:39.958Z,100712
2017-10-20T20:14:08.065Z,100715
2017-10-20T20:16:36.177Z,100715
2017-10-20T20:19:04.281Z,100709
2017-10-20T20:21:32.381Z,100708
2017-10-20T20:24:00.468Z,100722
2017-10-20T20:26:28.577Z,100722
2017-10-20T20:28:56.677Z,100716
2017-10-20T20:31:42.348Z,100715
2017-10-20T20:34:20.362Z,100721
2017-10-20T20:36:48.520Z,100711
2017-10-20T20:39:16.608Z,100709
2017-10-20T20:41:44.718Z,100710
2017-10-20T20:44:12.811Z,100710
2017-10-20T20:46:40.921Z,100705
2017-10-20T20:49:09.025Z,100701
2017-10-20T20:51:37.135Z,100698
2017-10-20T20:54:05.232Z,100705
2017-10-20T20:56:33.486Z,100704
2017-10-20T20:59:01.584Z,100702
2017-10-20T21:01:30.049Z,100705
2017-10-20T21:03:58.939Z,100700
2017-10-20T21:06:27.036Z,100704
2017-10-20T21:08:55.132Z,100699
2017-10-20T21:11:23.983Z,100700
2017-10-20T21:13:52.851Z,100700
2017-10-20T21:16:21.009Z,100699
2017-10-20T21:18:49.523Z,100707
2017-10-20T21:21:17.774Z,100703
2017-10-20T21:23:45.874Z,100703
2017-10-20T21:26:13.961Z,100698
2017-10-20T21:28:43.106Z,100695
2017-10-20T21:31:11.232Z,100703
2017-10-20T21:33:39.322Z,100696
2017-10-20T21:36:07.403Z,100698
2017-10-20T21:38:37.202Z,100703
2017-10-20T21:41:05.520Z,100690
2017-10-20T21:43:33.640Z,100701
2017-10-20T21:46:01.726Z,100698
2017-10-20T21:48:29.835Z,100696
2017-10-20T21:50:58.185Z,100701
2017-10-20T21:53:26.285Z,100697
2017-10-20T21:55:54.372Z,100696
2017-10-20T21:58:22.649Z,100688
2017-10-20T22:00:50.777Z,100690
2017-10-20T22:03:18.907Z,100690
2017-10-20T22:05:47.940Z,100688
2017-10-20T22:08:16.108Z,100696
2017-10-20T22:10:44.226Z,100697
2017-10-20T22:13:12.332Z,100699
2017-10-20T22:15:40.411Z,100707
2017-10-20T22:18:08.515Z,100703
2017-10-20T22:20:36.612Z,100706
2017-10-20T22:23:04.711Z,100713
2017-10-20T22:25:32.813Z,100684
2017-10-20T22:28:00.884Z,100717
2017-10-20T22:30:29.014Z,100700
2017-10-20T22:32:57.145Z,100706
2017-10-20T22:35:25.480Z,100708
2017-10-20T22:37:53.578Z,100705
2017-10-20T22:40:21.657Z,100701
2017-10-20T22:42:50.560Z,100696
2017-10-20T22:45:19.404Z,100697
2017-10-20T22:47:47.506Z,100700
2017-10-20T22:50:15.635Z,100699
2017-10-20T22:52:44.815Z,100700
2017-10-20T22:55:12.939Z,100696
2017-10-20T22:57:41.475Z,100685
2017-10-20T23:00:09.568Z,100694
2017-10-20T23:02:37.684Z,100692
2017-10-20T23:05:06.831Z,100685
2017-10-20T23:07:34.936Z,100688
2017-10-20T23:10:03.052Z,100696
2017-10-20T23:12:31.139Z,100704
2017-10-20T23:14:59.631Z,100709
2017-10-20T23:17:27.715Z,100706
2017-10-20T23:19:55.809Z,100698
2017-10-20T23:22:23.912Z,100693
2017-10-20T23:24:52.018Z,100690
2017-10-20T23:27:20.108Z,100684
2017-10-20T23:29:48.408Z,100681
2017-10-20T23:32:16.503Z,100690
2017-10-20T23:34:45.421Z,100690
2017-10-20T23:37:13.504Z,100685
2017-10-20T23:39:41.592Z,100690
2017-10-20T23:42:09.717Z,100680
2017-10-20T23:44:38.604Z,100687
2017-10-20T23:47:07.449Z,100693
2017-10-20T23:49:35.557Z,100686
2017-10-20T23:52:03.636Z,100689
2017-10-20T23:54:32.564Z,100689
2017-10-20T23:57:00.684Z,100685
2017-10-20T23:59:28.767Z,100681
